RDS155 KSAN-KLAX
Flight info
| Callsign | RDS155 |
|---|---|
| Flight time | 0h 26m |
| Altitude | 10000 |
| Route | CWARD2 SLI DCT |
| Aircraft | E170/M-VGDW/C |
Departure
| Time | 2026-04-26 01:15 |
|---|---|
| Airport | San Diego International Airport (KSAN) |
Arrival
| Time | 2026-04-26 01:42 |
|---|---|
| Airport | Los Angeles International Airport (KLAX) |
| Time | Latitude | Longitude | Altitude | Speed | Heading |
|---|---|---|---|---|---|
| 2026-04-26 00:54 | 32.73449 | -117.20348 | 20 ft | 0 kts | 230° |
| 2026-04-26 01:04 | 32.73461 | -117.20333 | 22 ft | 4 kts | 230° |
| 2026-04-26 01:04 | 32.73478 | -117.20308 | 22 ft | 4 kts | 234° |
| 2026-04-26 01:04 | 32.73481 | -117.20303 | 20 ft | 0 kts | 237° |
| 2026-04-26 01:05 | 32.73480 | -117.20305 | 21 ft | 1 kts | 235° |
| 2026-04-26 01:05 | 32.73478 | -117.20308 | 22 ft | 0 kts | 232° |
| 2026-04-26 01:07 | 32.73477 | -117.20309 | 22 ft | 0 kts | 222° |
| 2026-04-26 01:08 | 32.73471 | -117.20311 | 23 ft | 3 kts | 184° |
| 2026-04-26 01:08 | 32.73466 | -117.20306 | 20 ft | 1 kts | 112° |
| 2026-04-26 01:08 | 32.73487 | -117.20279 | 21 ft | 9 kts | 35° |
| 2026-04-26 01:08 | 32.73535 | -117.20222 | 22 ft | 10 kts | 54° |
| 2026-04-26 01:09 | 32.73543 | -117.20164 | 23 ft | 6 kts | 99° |
| 2026-04-26 01:09 | 32.73532 | -117.20104 | 25 ft | 8 kts | 102° |
| 2026-04-26 01:09 | 32.73516 | -117.20039 | 25 ft | 9 kts | 109° |
| 2026-04-26 01:09 | 32.73493 | -117.19955 | 24 ft | 12 kts | 108° |
| 2026-04-26 01:10 | 32.73468 | -117.19857 | 25 ft | 13 kts | 106° |
| 2026-04-26 01:10 | 32.73441 | -117.19739 | 24 ft | 16 kts | 104° |
| 2026-04-26 01:10 | 32.73407 | -117.19599 | 25 ft | 19 kts | 108° |
| 2026-04-26 01:10 | 32.73367 | -117.19447 | 26 ft | 21 kts | 107° |
| 2026-04-26 01:11 | 32.73324 | -117.19269 | 22 ft | 24 kts | 104° |
| 2026-04-26 01:11 | 32.73279 | -117.19076 | 24 ft | 24 kts | 106° |
| 2026-04-26 01:11 | 32.73232 | -117.18881 | 25 ft | 23 kts | 107° |
| 2026-04-26 01:11 | 32.73186 | -117.18695 | 26 ft | 24 kts | 106° |
| 2026-04-26 01:12 | 32.73137 | -117.18495 | 23 ft | 27 kts | 107° |
| 2026-04-26 01:12 | 32.73103 | -117.18352 | 23 ft | 27 kts | 105° |
| 2026-04-26 01:12 | 32.73050 | -117.18129 | 20 ft | 29 kts | 105° |
| 2026-04-26 01:12 | 32.72991 | -117.17898 | 19 ft | 29 kts | 109° |
| 2026-04-26 01:13 | 32.72952 | -117.17741 | 20 ft | 7 kts | 103° |
| 2026-04-26 01:13 | 32.72951 | -117.17709 | 19 ft | 4 kts | 88° |
| 2026-04-26 01:13 | 32.72952 | -117.17696 | 19 ft | 0 kts | 81° |
| 2026-04-26 01:13 | 32.72953 | -117.17687 | 19 ft | 4 kts | 77° |
| 2026-04-26 01:14 | 32.72971 | -117.17623 | 22 ft | 10 kts | 53° |
| 2026-04-26 01:14 | 32.73025 | -117.17625 | 23 ft | 9 kts | 313° |
| 2026-04-26 01:14 | 32.73038 | -117.17657 | 21 ft | 0 kts | 286° |
| 2026-04-26 01:14 | 32.73080 | -117.17831 | 22 ft | 62 kts | 286° |
| 2026-04-26 01:15 | 32.73272 | -117.18641 | 25 ft | 139 kts | 283° |
| 2026-04-26 01:15 | 32.73560 | -117.19883 | 693 ft | 161 kts | 282° |
| 2026-04-26 01:15 | 32.73893 | -117.21257 | 1572 ft | 190 kts | 287° |
| 2026-04-26 01:15 | 32.74488 | -117.22709 | 2819 ft | 203 kts | 302° |
| 2026-04-26 01:16 | 32.75362 | -117.24061 | 3873 ft | 205 kts | 305° |
| 2026-04-26 01:16 | 32.76262 | -117.25493 | 4528 ft | 222 kts | 304° |
| 2026-04-26 01:16 | 32.77183 | -117.27042 | 5402 ft | 235 kts | 303° |
| 2026-04-26 01:16 | 32.78148 | -117.28681 | 6273 ft | 247 kts | 303° |
| 2026-04-26 01:17 | 32.79152 | -117.30393 | 7082 ft | 258 kts | 302° |
| 2026-04-26 01:17 | 32.80196 | -117.32169 | 7913 ft | 266 kts | 302° |
| 2026-04-26 01:17 | 32.81333 | -117.33939 | 8807 ft | 271 kts | 304° |
| 2026-04-26 01:17 | 32.82505 | -117.35719 | 9733 ft | 277 kts | 303° |
| 2026-04-26 01:18 | 32.83706 | -117.37568 | 9965 ft | 284 kts | 302° |
| 2026-04-26 01:18 | 32.84912 | -117.39426 | 9969 ft | 283 kts | 302° |
| 2026-04-26 01:18 | 32.86107 | -117.41272 | 9980 ft | 281 kts | 302° |
| 2026-04-26 01:18 | 32.87295 | -117.43110 | 9982 ft | 280 kts | 302° |
| 2026-04-26 01:19 | 32.88478 | -117.44947 | 9986 ft | 280 kts | 302° |
| 2026-04-26 01:19 | 32.89659 | -117.46781 | 9986 ft | 279 kts | 302° |
| 2026-04-26 01:19 | 32.90838 | -117.48618 | 9981 ft | 279 kts | 303° |
| 2026-04-26 01:19 | 32.92015 | -117.50445 | 9996 ft | 278 kts | 303° |
| 2026-04-26 01:20 | 32.93191 | -117.52279 | 9993 ft | 279 kts | 303° |
| 2026-04-26 01:20 | 32.94351 | -117.54083 | 9994 ft | 279 kts | 303° |
| 2026-04-26 01:20 | 32.95526 | -117.55916 | 9999 ft | 279 kts | 303° |
| 2026-04-26 01:20 | 32.96699 | -117.57749 | 10025 ft | 279 kts | 302° |
| 2026-04-26 01:21 | 32.97876 | -117.59586 | 10038 ft | 279 kts | 303° |
| 2026-04-26 01:21 | 32.99053 | -117.61424 | 10006 ft | 279 kts | 303° |
| 2026-04-26 01:21 | 33.00229 | -117.63261 | 9979 ft | 279 kts | 303° |
| 2026-04-26 01:21 | 33.01400 | -117.65090 | 9983 ft | 278 kts | 303° |
| 2026-04-26 01:22 | 33.02570 | -117.66918 | 9978 ft | 277 kts | 303° |
| 2026-04-26 01:22 | 33.03736 | -117.68743 | 9976 ft | 277 kts | 303° |
| 2026-04-26 01:22 | 33.04904 | -117.70571 | 9976 ft | 277 kts | 303° |
| 2026-04-26 01:22 | 33.06075 | -117.72399 | 9975 ft | 278 kts | 304° |
| 2026-04-26 01:23 | 33.07459 | -117.74028 | 9990 ft | 282 kts | 314° |
| 2026-04-26 01:23 | 33.08965 | -117.75537 | 9981 ft | 283 kts | 315° |
| 2026-04-26 01:23 | 33.10461 | -117.77052 | 9972 ft | 282 kts | 315° |
| 2026-04-26 01:23 | 33.11959 | -117.78570 | 9974 ft | 282 kts | 315° |
| 2026-04-26 01:24 | 33.13454 | -117.80088 | 9966 ft | 282 kts | 315° |
| 2026-04-26 01:24 | 33.14946 | -117.81605 | 9968 ft | 282 kts | 315° |
| 2026-04-26 01:24 | 33.16440 | -117.83124 | 9968 ft | 282 kts | 315° |
| 2026-04-26 01:24 | 33.17930 | -117.84642 | 9970 ft | 282 kts | 315° |
| 2026-04-26 01:25 | 33.19529 | -117.86015 | 9980 ft | 288 kts | 329° |
| 2026-04-26 01:25 | 33.21448 | -117.86707 | 9980 ft | 296 kts | 343° |
| 2026-04-26 01:25 | 33.23470 | -117.87183 | 9988 ft | 296 kts | 343° |
| 2026-04-26 01:25 | 33.25491 | -117.87680 | 9968 ft | 297 kts | 343° |
| 2026-04-26 01:26 | 33.27508 | -117.88176 | 9968 ft | 296 kts | 343° |
| 2026-04-26 01:26 | 33.29524 | -117.88673 | 9968 ft | 295 kts | 343° |
| 2026-04-26 01:26 | 33.31538 | -117.89172 | 9922 ft | 297 kts | 343° |
| 2026-04-26 01:26 | 33.33564 | -117.89674 | 9695 ft | 297 kts | 343° |
| 2026-04-26 01:27 | 33.35582 | -117.90176 | 9472 ft | 294 kts | 343° |
| 2026-04-26 01:27 | 33.37579 | -117.90673 | 9247 ft | 292 kts | 344° |
| 2026-04-26 01:27 | 33.39552 | -117.91198 | 9025 ft | 289 kts | 340° |
| 2026-04-26 01:27 | 33.41460 | -117.91918 | 8808 ft | 287 kts | 338° |
| 2026-04-26 01:28 | 33.43367 | -117.92636 | 8604 ft | 288 kts | 339° |
| 2026-04-26 01:28 | 33.45272 | -117.93341 | 8403 ft | 286 kts | 339° |
| 2026-04-26 01:28 | 33.47169 | -117.94040 | 8191 ft | 284 kts | 339° |
| 2026-04-26 01:28 | 33.49055 | -117.94733 | 7992 ft | 283 kts | 339° |
| 2026-04-26 01:29 | 33.50931 | -117.95422 | 7797 ft | 282 kts | 339° |
| 2026-04-26 01:29 | 33.52806 | -117.96108 | 7601 ft | 281 kts | 339° |
| 2026-04-26 01:29 | 33.54670 | -117.96789 | 7359 ft | 281 kts | 339° |
| 2026-04-26 01:29 | 33.56535 | -117.97471 | 7093 ft | 279 kts | 339° |
| 2026-04-26 01:30 | 33.58375 | -117.98143 | 6969 ft | 270 kts | 340° |
| 2026-04-26 01:30 | 33.60118 | -117.98774 | 6932 ft | 254 kts | 339° |
| 2026-04-26 01:30 | 33.61755 | -117.99368 | 6945 ft | 235 kts | 339° |
| 2026-04-26 01:30 | 33.63295 | -117.99929 | 7002 ft | 231 kts | 338° |
| 2026-04-26 01:31 | 33.64843 | -118.00495 | 7013 ft | 234 kts | 339° |
| 2026-04-26 01:31 | 33.66411 | -118.01050 | 7034 ft | 234 kts | 339° |
| 2026-04-26 01:31 | 33.67970 | -118.01620 | 7031 ft | 235 kts | 339° |
| 2026-04-26 01:31 | 33.69531 | -118.02198 | 6956 ft | 235 kts | 338° |
| 2026-04-26 01:32 | 33.71053 | -118.02761 | 6964 ft | 233 kts | 338° |
| 2026-04-26 01:32 | 33.72605 | -118.03333 | 6974 ft | 233 kts | 339° |
| 2026-04-26 01:32 | 33.74162 | -118.03898 | 6963 ft | 234 kts | 339° |
| 2026-04-26 01:32 | 33.75718 | -118.04472 | 6927 ft | 234 kts | 339° |
| 2026-04-26 01:33 | 33.77273 | -118.05043 | 6930 ft | 234 kts | 339° |
| 2026-04-26 01:33 | 33.78835 | -118.05591 | 6929 ft | 234 kts | 341° |
| 2026-04-26 01:33 | 33.80398 | -118.06062 | 6917 ft | 236 kts | 342° |
| 2026-04-26 01:33 | 33.81993 | -118.06548 | 6740 ft | 235 kts | 341° |
| 2026-04-26 01:34 | 33.83564 | -118.07033 | 6568 ft | 232 kts | 342° |
| 2026-04-26 01:34 | 33.85123 | -118.07517 | 6411 ft | 232 kts | 341° |
| 2026-04-26 01:34 | 33.86688 | -118.08000 | 6245 ft | 233 kts | 341° |
| 2026-04-26 01:34 | 33.88249 | -118.08486 | 6093 ft | 231 kts | 341° |
| 2026-04-26 01:35 | 33.89801 | -118.08974 | 5928 ft | 230 kts | 341° |
| 2026-04-26 01:35 | 33.91349 | -118.09469 | 5701 ft | 231 kts | 341° |
| 2026-04-26 01:35 | 33.92895 | -118.09971 | 5447 ft | 232 kts | 342° |
| 2026-04-26 01:35 | 33.94449 | -118.10481 | 5105 ft | 231 kts | 342° |
| 2026-04-26 01:36 | 33.95847 | -118.11333 | 4717 ft | 224 kts | 314° |
| 2026-04-26 01:36 | 33.96684 | -118.12869 | 4337 ft | 219 kts | 288° |
| 2026-04-26 01:36 | 33.96656 | -118.14652 | 3767 ft | 218 kts | 249° |
| 2026-04-26 01:37 | 33.95751 | -118.17934 | 3371 ft | 199 kts | 264° |
| 2026-04-26 01:37 | 33.95660 | -118.19522 | 3171 ft | 183 kts | 263° |
| 2026-04-26 01:37 | 33.95486 | -118.20983 | 2987 ft | 170 kts | 259° |
| 2026-04-26 01:37 | 33.95336 | -118.22330 | 2761 ft | 153 kts | 262° |
| 2026-04-26 01:38 | 33.95227 | -118.23537 | 2557 ft | 140 kts | 262° |
| 2026-04-26 01:38 | 33.95110 | -118.24668 | 2383 ft | 133 kts | 262° |
| 2026-04-26 01:38 | 33.94999 | -118.25770 | 2202 ft | 133 kts | 262° |
| 2026-04-26 01:38 | 33.94888 | -118.26865 | 2025 ft | 131 kts | 261° |
| 2026-04-26 01:39 | 33.94778 | -118.27962 | 1856 ft | 132 kts | 262° |
| 2026-04-26 01:39 | 33.94665 | -118.29070 | 1665 ft | 135 kts | 262° |
| 2026-04-26 01:39 | 33.94553 | -118.30182 | 1478 ft | 133 kts | 263° |
| 2026-04-26 01:39 | 33.94441 | -118.31298 | 1307 ft | 134 kts | 263° |
| 2026-04-26 01:40 | 33.94329 | -118.32392 | 1120 ft | 134 kts | 262° |
| 2026-04-26 01:40 | 33.94218 | -118.33500 | 937 ft | 130 kts | 262° |
| 2026-04-26 01:40 | 33.94112 | -118.34548 | 755 ft | 125 kts | 261° |
| 2026-04-26 01:40 | 33.94015 | -118.35565 | 518 ft | 122 kts | 262° |
| 2026-04-26 01:41 | 33.93907 | -118.36571 | 425 ft | 117 kts | 263° |
| 2026-04-26 01:41 | 33.93815 | -118.37513 | 269 ft | 108 kts | 261° |
| 2026-04-26 01:41 | 33.93721 | -118.38404 | 161 ft | 105 kts | 262° |
| 2026-04-26 01:41 | 33.93642 | -118.39189 | 123 ft | 82 kts | 263° |
| 2026-04-26 01:42 | 33.93596 | -118.39695 | 122 ft | 39 kts | 275° |
| 2026-04-26 01:42 | 33.93638 | -118.39899 | 121 ft | 14 kts | 291° |
| 2026-04-26 01:42 | 33.93651 | -118.39939 | 121 ft | 0 kts | 288° |
| 2026-04-26 01:42 | 33.93651 | -118.39940 | 121 ft | 0 kts | 288° |
| 2026-04-26 01:43 | 33.93655 | -118.39955 | 121 ft | 5 kts | 288° |
| 2026-04-26 01:43 | 33.93664 | -118.40018 | 121 ft | 11 kts | 272° |
| 2026-04-26 01:44 | 33.93656 | -118.40131 | 123 ft | 16 kts | 262° |
| 2026-04-26 01:44 | 33.93641 | -118.40278 | 123 ft | 19 kts | 264° |
| 2026-04-26 01:44 | 33.93624 | -118.40441 | 123 ft | 21 kts | 263° |
| 2026-04-26 01:44 | 33.93607 | -118.40620 | 120 ft | 22 kts | 263° |
| 2026-04-26 01:45 | 33.93593 | -118.40797 | 123 ft | 15 kts | 274° |
| 2026-04-26 01:45 | 33.93601 | -118.40856 | 122 ft | 2 kts | 306° |
| 2026-04-26 01:46 | 33.93616 | -118.40875 | 122 ft | 8 kts | 321° |
| 2026-04-26 01:46 | 33.93694 | -118.40900 | 123 ft | 14 kts | 353° |
| 2026-04-26 01:47 | 33.93800 | -118.40913 | 122 ft | 16 kts | 355° |
| 2026-04-26 01:47 | 33.93872 | -118.40887 | 122 ft | 10 kts | 85° |
| 2026-04-26 01:47 | 33.93881 | -118.40790 | 123 ft | 14 kts | 83° |
| 2026-04-26 01:47 | 33.93895 | -118.40658 | 123 ft | 9 kts | 81° |
| 2026-04-26 01:48 | 33.93912 | -118.40563 | 122 ft | 13 kts | 56° |
| 2026-04-26 01:48 | 33.93996 | -118.40548 | 122 ft | 14 kts | 354° |
| 2026-04-26 01:48 | 33.94055 | -118.40549 | 121 ft | 1 kts | 59° |
| 2026-04-26 01:48 | 33.94057 | -118.40543 | 123 ft | 2 kts | 72° |
| 2026-04-26 01:49 | 33.94063 | -118.40514 | 123 ft | 2 kts | 83° |
| 2026-04-26 01:49 | 33.94065 | -118.40499 | 123 ft | 0 kts | 82° |